Currently 60°F in Simi Valley, California, USA
60°F
60°F / 44°F
10 mph SW
0.00"
Thursday, March 23, 2017 11:16 AM PDT

Simi Valley, California Weather Summary
Last 36 Hours

Temperature Winds Hourly Humidity Dewpoint
Time Report Norm Report Norm Max Gusts Precip. Rpt. Norm Rpt. Norm Pressure
1,2Thu 11:16 AM  59.8°F  64°F  10 mph SW  3 mph  17 mph  0.00"  51%  55%  41°F  47°F  30.11"
Thu 11:00 AM  59.0°F  63°F  9 mph NW  3 mph  18 mph  0.00"  51%  56%  40°F  47°F  30.12"
Thu 10:00 AM  55.9°F  59°F  12 mph NW  3 mph  23 mph  0.00"  57%  64%  40°F  47°F  30.09"
Thu 09:00 AM  52.5°F  56°F  5 mph E  2 mph  20 mph  0.00"  69%  71%  42°F  46°F  30.06"
Thu 08:00 AM  46.4°F  52°F  5 mph E  2 mph  13 mph  0.00"  91%  75%  44°F  44°F  30.05"
Thu 07:00 AM  44.3°F  50°F  1 mph NW  2 mph  8 mph  0.00"  92%  76%  42°F  43°F  30.03"
Thu 06:00 AM  45.8°F  51°F  4 mph W  2 mph  10 mph  0.00"  92%  75%  44°F  43°F  30.03"
Thu 05:00 AM  43.8°F  51°F  1 mph SE  2 mph  7 mph  0.00"  89%  74%  41°F  43°F  30.01"
3Thu 04:48 AM  43.6°F  51°F  1 mph NW  2 mph  5 mph  ----  88%  74%  40°F  43°F  30.01"
Thu 04:00 AM  44.2°F  51°F  4 mph N  2 mph  7 mph  0.00"  88%  74%  41°F  43°F  30.00"
Thu 03:00 AM  45.0°F  52°F  4 mph N  2 mph  5 mph  0.00"  87%  73%  41°F  43°F  30.00"
Thu 02:00 AM  46.0°F  52°F  4 mph NW  1 mph  8 mph  0.00"  86%  73%  42°F  44°F  29.99"
Thu 01:00 AM  47.2°F  53°F  2 mph N  1 mph  7 mph  0.00"  86%  72%  43°F  44°F  29.98"
Thu 12:00 AM  48.8°F  54°F  4 mph NW  1 mph  7 mph  0.00"  85%  71%  44°F  44°F  29.98"
Wed 11:00 PM  50.3°F  54°F  3 mph NW  2 mph  7 mph  0.00"  84%  71%  46°F  45°F  29.97"
Wed 10:00 PM  53.1°F  55°F  1 mph NW  1 mph  5 mph  0.00"  82%  70%  48°F  46°F  29.96"
Wed 09:00 PM  55.4°F  57°F  2 mph SW  2 mph  8 mph  0.00"  79%  70%  49°F  47°F  29.94"
Wed 08:00 PM  56.1°F  59°F  4 mph W  2 mph  17 mph  0.00"  80%  67%  50°F  47°F  29.93"
Wed 07:00 PM  58.3°F  61°F  8 mph W  3 mph  20 mph  0.00"  77%  62%  51°F  48°F  29.92"
Wed 06:00 PM  59.5°F  64°F  8 mph W  4 mph  21 mph  0.00"  73%  55%  50°F  47°F  29.92"
Wed 05:00 PM  60.7°F  66°F  12 mph SW  5 mph  24 mph  0.00"  69%  52%  50°F  47°F  29.93"
Wed 04:00 PM  62.5°F  68°F  11 mph W  5 mph  24 mph  0.00"  67%  49%  51°F  47°F  29.93"
Wed 03:00 PM  63.3°F  69°F  8 mph W  5 mph  20 mph  0.00"  65%  47%  51°F  47°F  29.94"
Wed 02:00 PM  62.5°F  69°F  11 mph SW  5 mph  17 mph  0.00"  65%  45%  50°F  46°F  29.98"
Wed 01:00 PM  59.9°F  69°F  6 mph W  5 mph  14 mph  0.00"  71%  46%  50°F  46°F  30.00"
Wed 12:00 PM  58.9°F  67°F  10 mph SW  4 mph  15 mph  0.00"  76%  49%  51°F  46°F  30.03"
Wed 11:00 AM  57.4°F  64°F  3 mph SE  4 mph  8 mph  0.00"  86%  54%  53°F  46°F  30.03"
Wed 10:00 AM  54.3°F  60°F  3 mph SW  3 mph  8 mph  0.00"  95%  62%  53°F  46°F  30.03"
Wed 09:00 AM  54.0°F  56°F  2 mph W  2 mph  11 mph  0.00"  96%  70%  53°F  46°F  30.02"
Wed 08:00 AM  54.8°F  52°F  6 mph W  2 mph  8 mph  0.00"  95%  74%  53°F  43°F  30.01"
Wed 07:00 AM  54.1°F  51°F  calm  2 mph  5 mph  0.00"  94%  74%  52°F  42°F  29.99"
Wed 06:00 AM  55.1°F  51°F  calm  2 mph  5 mph  0.00"  94%  73%  53°F  42°F  29.99"
Wed 05:00 AM  55.8°F  51°F  calm  2 mph  4 mph  0.00"  93%  73%  54°F  42°F  29.98"
Wed 04:00 AM  56.7°F  52°F  calm  2 mph  3 mph  0.00"  93%  72%  54°F  43°F  29.98"
Wed 03:00 AM  56.8°F  52°F  calm  2 mph  4 mph  0.01"  92%  72%  55°F  43°F  29.99"
Wed 02:00 AM  56.6°F  53°F  calm  1 mph  3 mph  0.00"  92%  72%  54°F  44°F  30.02"
Wed 01:00 AM  56.6°F  53°F  calm  1 mph  8 mph  0.00"  92%  71%  54°F  44°F  30.01"
Wed 12:00 AM  56.6°F  54°F  4 mph SE  1 mph  9 mph  0.00"  92%  70%  54°F  44°F  30.02"

  1. Current weather data. No green row appears if the current weather data is also the high or low for the current day.
  2. High temperature for the current day.
  3. Low temperature for the current day.

The Simi Valley, California weather pages are a service of WeatherCurrents.
Copyright ©Thu Mar 23 11:17:01 PDT 2017  WeatherCurrents. All rights reserved. - Submit questions and comments - Privacy Policy

This page automatically refreshes every 10 minutes.